Sovereign — 9HUE9 — position and weather

sailwx.info

Track history (hours):
 
Tides and Currents Weather Stations Pressure Air Temp Water Temp Dewpoint Dewpoint Depression Visibility Wind Speed Wind Dir Waves Ship Positions

Sovereign

Last reported at 2015-Sep-04 15:33 UTC. Time now 2015-Sep-04 16:33 UTC.
Position N 43°07' E 006°44'.

Length 268 m; draft 7.7 m.

Type: Passenger vessel. MMSI: 249539000.

Date/timePositionNaut miles runAvg speedWind from/ knotsBaromVisibWave heightAir tempDewpointWater temp
2015-Sep-04 15:33N 43°07' E 006°44'1918.8
2015-Sep-04 14:33N 43°21' E 007°01'1818.3
2015-Sep-04 13:33N 43°36' E 007°15'6 5.2
2015-Sep-04 12:19N 43°42' E 007°19'0 0.0
2015-Sep-04 10:13N 43°42' E 007°19'0 0.0
2015-Sep-04 08:31N 43°42' E 007°19'0 0.1
2015-Sep-04 07:31N 43°42' E 007°19'0 0.1
2015-Sep-04 06:31N 43°42' E 007°19'0 0.0
2015-Sep-04 05:33N 43°42' E 007°19'0 0.1
2015-Sep-04 04:25N 43°42' E 007°19'5 5.3
2015-Sep-04 03:33N 43°39' E 007°24'10 9.7
2015-Sep-04 02:33N 43°39' E 007°38'1212.1
2015-Sep-04 01:34N 43°38' E 007°54'1312.9
2015-Sep-04 00:34N 43°37' E 008°12'1312.6
2015-Sep-03 23:34N 43°36' E 008°30'1313.0
2015-Sep-03 22:34N 43°36' E 008°47'1312.9
2015-Sep-03 21:34N 43°35' E 009°05'1312.8
2015-Sep-03 20:33N 43°35' E 009°23'1312.8
2015-Sep-03 19:33N 43°35' E 009°41'1212.5
2015-Sep-03 18:34N 43°32' E 009°57'1211.5
2015-Sep-03 17:33N 43°32' E 010°13'4 3.6
2015-Sep-03 16:33N 43°33' E 010°18'0 0.0
2015-Sep-03 15:33N 43°33' E 010°18'0 0.0
2015-Sep-03 14:33N 43°33' E 010°18'0 0.0
2015-Sep-03 13:33N 43°33' E 010°18'0 0.0
2015-Sep-03 12:30N 43°33' E 010°18'0 0.0
2015-Sep-03 11:33N 43°33' E 010°18'0 0.0
2015-Sep-03 10:33N 43°33' E 010°18'0 0.0
2015-Sep-03 09:33N 43°33' E 010°18'0 0.0
2015-Sep-03 08:32N 43°33' E 010°18'0 0.0
2015-Sep-03 07:29N 43°33' E 010°18'0 0.0
2015-Sep-03 06:32N 43°33' E 010°18'132 4.8
2015-Sep-02 03:04N 41°40' E 011°52'815.2
2015-Sep-02 02:33N 41°35' E 011°59'1515.5
2015-Sep-02 01:33N 41°24' E 012°14'1514.7
2015-Sep-02 00:33N 41°15' E 012°30'1814.7
2015-Sep-01 23:20N 41°07' E 012°51'1214.7
2015-Sep-01 22:33N 41°03' E 013°05'1413.6
2015-Sep-01 21:34N 40°56' E 013°21'1312.8
2015-Sep-01 20:33N 40°49' E 013°35'1313.1
2015-Sep-01 19:33N 40°39' E 013°46'1313.1
2015-Sep-01 18:33N 40°38' E 014°03'1313.3
2015-Sep-01 17:33N 40°47' E 014°15'66 4.1
2015-Sep-01 01:12N 40°43' E 012°48'1215.8
2015-Sep-01 00:26N 40°44' E 012°32'1315.4
2015-Aug-31 23:33N 40°45' E 012°14'1515.3
2015-Aug-31 22:33N 40°47' E 011°54'1515.1
2015-Aug-31 21:33N 40°49' E 011°35'2115.1
2015-Aug-31 20:10N 40°51' E 011°07'71 5.1
2015-Aug-31 06:08N 40°55' E 009°33'19 9.2
2015-Aug-31 04:06N 41°08' E 009°50'611.8
2015-Aug-31 03:33N 41°15' E 009°50'6610.5
2015-Aug-30 21:18N 41°17' E 008°23'4411.7
2015-Aug-30 17:33N 41°17' E 007°24'1111.2
2015-Aug-30 16:33N 41°17' E 007°09'1811.9
2015-Aug-30 15:05N 41°17' E 006°46'810.0
2015-Aug-30 14:17N 41°17' E 006°35'7 9.6
2015-Aug-30 13:33N 41°17' E 006°26'10 9.7
2015-Aug-30 12:33N 41°17' E 006°13'10 9.6
2015-Aug-30 11:33N 41°17' E 006°00'21 9.3
2015-Aug-30 09:19N 41°17' E 005°32'7 9.2
2015-Aug-30 08:33N 41°17' E 005°23'11 8.8
2015-Aug-30 07:21N 41°17' E 005°09'16 9.0
2015-Aug-30 05:33N 41°17' E 004°47'11 9.3
2015-Aug-30 04:21N 41°17' E 004°33'18 9.5
2015-Aug-30 02:28N 41°17' E 004°09'9 9.5
2015-Aug-30 01:33N 41°17' E 003°57'10 9.7
2015-Aug-30 00:33N 41°17' E 003°44'10 9.8
2015-Aug-29 23:33N 41°16' E 003°31'10 9.8
2015-Aug-29 22:33N 41°16' E 003°18'9 9.4
2015-Aug-29 21:33N 41°16' E 003°06'9 9.0
2015-Aug-29 20:33N 41°16' E 002°54'9 9.3
2015-Aug-29 19:33N 41°16' E 002°41'9 9.5
2015-Aug-29 18:33N 41°16' E 002°29'10 9.6
2015-Aug-29 17:33N 41°16' E 002°16'7 6.5
2015-Aug-29 16:33N 41°21' E 002°11'0 0.0
2015-Aug-29 11:31N 41°22' E 002°11'0 0.0
2015-Aug-29 09:31N 41°22' E 002°11'0 0.0
2015-Aug-29 06:33N 41°22' E 002°11'7 6.5
2015-Aug-29 05:30N 41°17' E 002°18'1415.1
2015-Aug-29 04:33N 41°24' E 002°35'1615.5
2015-Aug-29 03:33N 41°31' E 002°53'1615.6
2015-Aug-29 02:33N 41°38' E 003°12'1616.2
2015-Aug-29 01:33N 41°46' E 003°31'1616.4
2015-Aug-29 00:33N 41°53' E 003°50'1616.2
2015-Aug-28 23:33N 42°01' E 004°10'1615.6
2015-Aug-28 22:33N 42°08' E 004°28'1615.9
2015-Aug-28 21:33N 42°15' E 004°47'1616.1
2015-Aug-28 20:34N 42°23' E 005°06'1615.9
2015-Aug-28 19:34N 42°31' E 005°25'1817.5
2015-Aug-28 18:33N 42°38' E 005°47'2218.6
2015-Aug-28 17:21N 42°49' E 006°14'1518.7
2015-Aug-28 16:33N 42°56' E 006°31'1818.4
2015-Aug-28 15:33N 43°10' E 006°48'1818.5
2015-Aug-28 14:34N 43°24' E 007°05'1717.5
2015-Aug-28 13:34N 43°39' E 007°17'3 1.5
2015-Aug-28 11:25N 43°42' E 007°19'0 0.1
2015-Aug-28 10:31N 43°42' E 007°19'0 0.0
2015-Aug-28 09:25N 43°42' E 007°19'0 0.0
2015-Aug-28 08:19N 43°42' E 007°19'0 0.0
2015-Aug-28 07:19N 43°42' E 007°19'0 0.0
2015-Aug-28 06:19N 43°42' E 007°19'0 0.0
2015-Aug-28 05:19N 43°42' E 007°19'0 0.2
2015-Aug-28 04:33N 43°42' E 007°19'7 7.5
2015-Aug-28 03:33N 43°39' E 007°29'1111.4
2015-Aug-28 02:33N 43°38' E 007°44'1211.9
2015-Aug-28 01:33N 43°38' E 008°01'1212.3
2015-Aug-28 00:33N 43°37' E 008°18'1212.3
2015-Aug-27 23:33N 43°36' E 008°35'1211.8
2015-Aug-27 22:33N 43°36' E 008°51'1312.7
2015-Aug-27 21:33N 43°35' E 009°08'1313.1
2015-Aug-27 20:33N 43°34' E 009°26'1313.2
2015-Aug-27 19:33N 43°33' E 009°45'1312.6
2015-Aug-27 18:33N 43°31' E 010°02'1110.5
2015-Aug-27 17:33N 43°32' E 010°16'1 0.5
2015-Aug-27 14:27N 43°33' E 010°18'0 0.0
2015-Aug-27 13:21N 43°33' E 010°18'0 0.0
2015-Aug-27 12:33N 43°33' E 010°18'0 0.0
2015-Aug-27 11:33N 43°33' E 010°18'0 0.0
2015-Aug-27 10:30N 43°33' E 010°18'0 0.0
2015-Aug-27 09:33N 43°33' E 010°18'0 0.0
2015-Aug-27 08:30N 43°33' E 010°18'0 0.0
2015-Aug-27 07:33N 43°33' E 010°18'0 0.1
2015-Aug-27 05:08N 43°33' E 010°18'1710.8
2015-Aug-27 03:33N 43°18' E 010°09'7013.5
2015-Aug-26 22:19N 42°07' E 010°06'3417.1
2015-Aug-26 20:21N 42°02' E 010°50'1417.0
2015-Aug-26 19:33N 42°02' E 011°09'1717.1
2015-Aug-26 18:33N 42°04' E 011°31'103 4.9
2015-Aug-25 21:33N 40°58' E 013°17'1413.9
2015-Aug-25 20:33N 40°50' E 013°33'1413.8
2015-Aug-25 19:32N 40°40' E 013°45'1313.4
2015-Aug-25 18:33N 40°38' E 014°02'1414.0
2015-Aug-25 17:33N 40°47' E 014°15'  
Track history (hours):
 
Tides and Currents Weather Stations Pressure Air Temp Water Temp Dewpoint Dewpoint Depression Visibility Wind Speed Wind Dir Waves Ship Positions

Sovereign

Last reported at 2015-Sep-04 15:33 UTC. Time now 2015-Sep-04 16:33 UTC.
Position N 43°07' E 006°44'.

Length 268 m; draft 7.7 m.

Type: Passenger vessel. MMSI: 249539000.

Date/timePositionNaut miles runAvg speedWind from/ knotsBaromVisibWave heightAir tempDewpointWater temp
2015-Sep-04 15:33N 43°07' E 006°44'1918.8
2015-Sep-04 14:33N 43°21' E 007°01'1818.3
2015-Sep-04 13:33N 43°36' E 007°15'6 5.2
2015-Sep-04 12:19N 43°42' E 007°19'0 0.0
2015-Sep-04 10:13N 43°42' E 007°19'0 0.0
2015-Sep-04 08:31N 43°42' E 007°19'0 0.1
2015-Sep-04 07:31N 43°42' E 007°19'0 0.1
2015-Sep-04 06:31N 43°42' E 007°19'0 0.0
2015-Sep-04 05:33N 43°42' E 007°19'0 0.1
2015-Sep-04 04:25N 43°42' E 007°19'5 5.3
2015-Sep-04 03:33N 43°39' E 007°24'10 9.7
2015-Sep-04 02:33N 43°39' E 007°38'1212.1
2015-Sep-04 01:34N 43°38' E 007°54'1312.9
2015-Sep-04 00:34N 43°37' E 008°12'1312.6
2015-Sep-03 23:34N 43°36' E 008°30'1313.0
2015-Sep-03 22:34N 43°36' E 008°47'1312.9
2015-Sep-03 21:34N 43°35' E 009°05'1312.8
2015-Sep-03 20:33N 43°35' E 009°23'1312.8
2015-Sep-03 19:33N 43°35' E 009°41'1212.5
2015-Sep-03 18:34N 43°32' E 009°57'1211.5
2015-Sep-03 17:33N 43°32' E 010°13'4 3.6
2015-Sep-03 16:33N 43°33' E 010°18'0 0.0
2015-Sep-03 15:33N 43°33' E 010°18'0 0.0
2015-Sep-03 14:33N 43°33' E 010°18'0 0.0
2015-Sep-03 13:33N 43°33' E 010°18'0 0.0
2015-Sep-03 12:30N 43°33' E 010°18'0 0.0
2015-Sep-03 11:33N 43°33' E 010°18'0 0.0
2015-Sep-03 10:33N 43°33' E 010°18'0 0.0
2015-Sep-03 09:33N 43°33' E 010°18'0 0.0
2015-Sep-03 08:32N 43°33' E 010°18'0 0.0
2015-Sep-03 07:29N 43°33' E 010°18'0 0.0
2015-Sep-03 06:32N 43°33' E 010°18'132 4.8
2015-Sep-02 03:04N 41°40' E 011°52'815.2
2015-Sep-02 02:33N 41°35' E 011°59'1515.5
2015-Sep-02 01:33N 41°24' E 012°14'1514.7
2015-Sep-02 00:33N 41°15' E 012°30'1814.7
2015-Sep-01 23:20N 41°07' E 012°51'1214.7
2015-Sep-01 22:33N 41°03' E 013°05'1413.6
2015-Sep-01 21:34N 40°56' E 013°21'1312.8
2015-Sep-01 20:33N 40°49' E 013°35'1313.1
2015-Sep-01 19:33N 40°39' E 013°46'1313.1
2015-Sep-01 18:33N 40°38' E 014°03'1313.3
2015-Sep-01 17:33N 40°47' E 014°15'66 4.1
2015-Sep-01 01:12N 40°43' E 012°48'1215.8
2015-Sep-01 00:26N 40°44' E 012°32'1315.4
2015-Aug-31 23:33N 40°45' E 012°14'1515.3
2015-Aug-31 22:33N 40°47' E 011°54'1515.1
2015-Aug-31 21:33N 40°49' E 011°35'2115.1
2015-Aug-31 20:10N 40°51' E 011°07'71 5.1
2015-Aug-31 06:08N 40°55' E 009°33'19 9.2
2015-Aug-31 04:06N 41°08' E 009°50'611.8
2015-Aug-31 03:33N 41°15' E 009°50'6610.5
2015-Aug-30 21:18N 41°17' E 008°23'4411.7
2015-Aug-30 17:33N 41°17' E 007°24'1111.2
2015-Aug-30 16:33N 41°17' E 007°09'1811.9
2015-Aug-30 15:05N 41°17' E 006°46'810.0
2015-Aug-30 14:17N 41°17' E 006°35'7 9.6
2015-Aug-30 13:33N 41°17' E 006°26'10 9.7
2015-Aug-30 12:33N 41°17' E 006°13'10 9.6
2015-Aug-30 11:33N 41°17' E 006°00'21 9.3
2015-Aug-30 09:19N 41°17' E 005°32'7 9.2
2015-Aug-30 08:33N 41°17' E 005°23'11 8.8
2015-Aug-30 07:21N 41°17' E 005°09'16 9.0
2015-Aug-30 05:33N 41°17' E 004°47'11 9.3
2015-Aug-30 04:21N 41°17' E 004°33'18 9.5
2015-Aug-30 02:28N 41°17' E 004°09'9 9.5
2015-Aug-30 01:33N 41°17' E 003°57'10 9.7
2015-Aug-30 00:33N 41°17' E 003°44'10 9.8
2015-Aug-29 23:33N 41°16' E 003°31'10 9.8
2015-Aug-29 22:33N 41°16' E 003°18'9 9.4
2015-Aug-29 21:33N 41°16' E 003°06'9 9.0
2015-Aug-29 20:33N 41°16' E 002°54'9 9.3
2015-Aug-29 19:33N 41°16' E 002°41'9 9.5
2015-Aug-29 18:33N 41°16' E 002°29'10 9.6
2015-Aug-29 17:33N 41°16' E 002°16'7 6.5
2015-Aug-29 16:33N 41°21' E 002°11'0 0.0
2015-Aug-29 11:31N 41°22' E 002°11'0 0.0
2015-Aug-29 09:31N 41°22' E 002°11'0 0.0
2015-Aug-29 06:33N 41°22' E 002°11'7 6.5
2015-Aug-29 05:30N 41°17' E 002°18'1415.1
2015-Aug-29 04:33N 41°24' E 002°35'1615.5
2015-Aug-29 03:33N 41°31' E 002°53'1615.6
2015-Aug-29 02:33N 41°38' E 003°12'1616.2
2015-Aug-29 01:33N 41°46' E 003°31'1616.4
2015-Aug-29 00:33N 41°53' E 003°50'1616.2
2015-Aug-28 23:33N 42°01' E 004°10'1615.6
2015-Aug-28 22:33N 42°08' E 004°28'1615.9
2015-Aug-28 21:33N 42°15' E 004°47'1616.1
2015-Aug-28 20:34N 42°23' E 005°06'1615.9
2015-Aug-28 19:34N 42°31' E 005°25'1817.5
2015-Aug-28 18:33N 42°38' E 005°47'2218.6
2015-Aug-28 17:21N 42°49' E 006°14'1518.7
2015-Aug-28 16:33N 42°56' E 006°31'1818.4
2015-Aug-28 15:33N 43°10' E 006°48'1818.5
2015-Aug-28 14:34N 43°24' E 007°05'1717.5
2015-Aug-28 13:34N 43°39' E 007°17'3 1.5
2015-Aug-28 11:25N 43°42' E 007°19'0 0.1
2015-Aug-28 10:31N 43°42' E 007°19'0 0.0
2015-Aug-28 09:25N 43°42' E 007°19'0 0.0
2015-Aug-28 08:19N 43°42' E 007°19'0 0.0
2015-Aug-28 07:19N 43°42' E 007°19'0 0.0
2015-Aug-28 06:19N 43°42' E 007°19'0 0.0
2015-Aug-28 05:19N 43°42' E 007°19'0 0.2
2015-Aug-28 04:33N 43°42' E 007°19'7 7.5
2015-Aug-28 03:33N 43°39' E 007°29'1111.4
2015-Aug-28 02:33N 43°38' E 007°44'1211.9
2015-Aug-28 01:33N 43°38' E 008°01'1212.3
2015-Aug-28 00:33N 43°37' E 008°18'1212.3
2015-Aug-27 23:33N 43°36' E 008°35'1211.8
2015-Aug-27 22:33N 43°36' E 008°51'1312.7
2015-Aug-27 21:33N 43°35' E 009°08'1313.1
2015-Aug-27 20:33N 43°34' E 009°26'1313.2
2015-Aug-27 19:33N 43°33' E 009°45'1312.6
2015-Aug-27 18:33N 43°31' E 010°02'1110.5
2015-Aug-27 17:33N 43°32' E 010°16'1 0.5
2015-Aug-27 14:27N 43°33' E 010°18'0 0.0
2015-Aug-27 13:21N 43°33' E 010°18'0 0.0
2015-Aug-27 12:33N 43°33' E 010°18'0 0.0
2015-Aug-27 11:33N 43°33' E 010°18'0 0.0
2015-Aug-27 10:30N 43°33' E 010°18'0 0.0
2015-Aug-27 09:33N 43°33' E 010°18'0 0.0
2015-Aug-27 08:30N 43°33' E 010°18'0 0.0
2015-Aug-27 07:33N 43°33' E 010°18'0 0.1
2015-Aug-27 05:08N 43°33' E 010°18'1710.8
2015-Aug-27 03:33N 43°18' E 010°09'7013.5
2015-Aug-26 22:19N 42°07' E 010°06'3417.1
2015-Aug-26 20:21N 42°02' E 010°50'1417.0
2015-Aug-26 19:33N 42°02' E 011°09'1717.1
2015-Aug-26 18:33N 42°04' E 011°31'103 4.9
2015-Aug-25 21:33N 40°58' E 013°17'1413.9
2015-Aug-25 20:33N 40°50' E 013°33'1413.8
2015-Aug-25 19:32N 40°40' E 013°45'1313.4
2015-Aug-25 18:33N 40°38' E 014°02'1414.0
2015-Aug-25 17:33N 40°47' E 014°15'  

Dump ship's entire track history